Napo, China
Current Conditions -  °F | °C
As of 11:00 AM on Tuesday 21 Oct 2014 (Local Time) from ZGNN Reporting Station
Few Clouds Few Clouds  
Wind Chill: 84°   Ceiling: Unl
Heat Index: 90°   Visibility: 6mi
Dew Point: 72°   Wind: 2mph
Humidity: 66%   Direction: NA
Pressure: 30.06"   Gusts: NA
Location:  23.3°N, 105.95°E
Report Text: ZGNN 210300Z VRB01MPS 9999 FEW016 29/22 Q1018 NOSIG
Loading
Personal Weather Stations






























Interactive Weather Map
Tropical Storm Tracking
New forecast layout! Learn more

10-Day Weather Forecast

Advertisements
Track Severe Weather on mobile